createdAt,value
2022-09-03T00:01:03.924Z,98786.80
2022-09-03T00:03:40.826Z,98788.39
2022-09-03T00:06:17.789Z,98782.70
2022-09-03T00:08:54.978Z,98781.36
2022-09-03T00:11:47.678Z,98783.07
2022-09-03T00:14:24.483Z,98782.77
2022-09-03T00:16:57.921Z,98780.64
2022-09-03T00:19:29.133Z,98778.37
2022-09-03T00:22:03.035Z,98778.46
2022-09-03T00:24:36.575Z,98774.33
2022-09-03T00:27:08.181Z,98775.87
2022-09-03T00:29:43.444Z,98773.31
2022-09-03T00:32:18.865Z,98772.73
2022-09-03T00:34:51.698Z,98767.35
2022-09-03T00:37:18.833Z,98766.39
2022-09-03T00:39:45.842Z,98763.84
2022-09-03T00:42:17.924Z,98761.04
2022-09-03T00:44:55.265Z,98763.06
2022-09-03T00:47:42.010Z,98762.19
2022-09-03T00:50:15.609Z,98762.44
2022-09-03T00:52:58.603Z,98767.67
2022-09-03T00:55:25.971Z,98762.02
2022-09-03T00:58:10.173Z,98763.87
2022-09-03T01:00:39.948Z,98761.33
2022-09-03T01:03:12.916Z,98764.85
2022-09-03T01:05:50.359Z,98759.41
2022-09-03T01:08:32.307Z,98761.33
2022-09-03T01:11:30.618Z,98764.34
2022-09-03T01:14:11.085Z,98762.44
2022-09-03T01:16:43.970Z,98766.65
2022-09-03T01:19:27.657Z,98769.20
2022-09-03T01:22:21.127Z,98769.41
2022-09-03T01:25:12.842Z,98768.93
2022-09-03T01:27:47.314Z,98765.67
2022-09-03T01:30:18.813Z,98771.14
2022-09-03T01:32:54.124Z,98766.34
2022-09-03T01:35:37.307Z,98770.33
2022-09-03T01:38:27.521Z,98771.55
2022-09-03T01:41:33.332Z,98772.29
2022-09-03T01:44:06.707Z,98777.02
2022-09-03T01:46:40.326Z,98772.80
2022-09-03T01:49:07.776Z,98767.27
2022-09-03T01:51:34.635Z,98767.41
2022-09-03T01:54:21.453Z,98773.23
2022-09-03T01:57:35.470Z,98774.39
2022-09-03T02:00:20.703Z,98779.80
2022-09-03T02:02:51.528Z,98783.34
2022-09-03T02:05:23.400Z,98780.13
2022-09-03T02:07:58.199Z,98778.11
2022-09-03T02:10:30.516Z,98778.04
2022-09-03T02:13:05.129Z,98776.02
2022-09-03T02:15:34.786Z,98773.98
2022-09-03T02:18:06.105Z,98777.08
2022-09-03T02:20:33.798Z,98776.34
2022-09-03T02:23:00.930Z,98777.00
2022-09-03T02:25:37.999Z,98779.37
2022-09-03T02:28:11.200Z,98781.25
2022-09-03T02:30:44.720Z,98780.23
2022-09-03T02:33:12.008Z,98778.94
2022-09-03T02:35:40.791Z,98777.61
2022-09-03T02:38:13.258Z,98777.98
2022-09-03T02:40:40.067Z,98782.82
2022-09-03T02:43:14.177Z,98782.42
2022-09-03T02:45:48.237Z,98784.46
2022-09-03T02:48:21.667Z,98788.58
2022-09-03T02:50:48.550Z,98792.77
2022-09-03T02:53:15.879Z,98788.33
2022-09-03T02:55:42.729Z,98794.09
2022-09-03T02:58:09.607Z,98791.14
2022-09-03T03:00:37.410Z,98793.34
2022-09-03T03:03:05.829Z,98790.01
2022-09-03T03:05:44.176Z,98791.98
2022-09-03T03:08:12.383Z,98795.63
2022-09-03T03:10:39.152Z,98794.13
2022-09-03T03:13:06.017Z,98792.90
2022-09-03T03:15:32.863Z,98792.45
2022-09-03T03:17:59.692Z,98791.61
2022-09-03T03:20:26.510Z,98788.16
2022-09-03T03:22:53.328Z,98791.71
2022-09-03T03:25:20.309Z,98787.19
2022-09-03T03:27:47.335Z,98793.91
2022-09-03T03:30:14.733Z,98795.22
2022-09-03T03:32:41.520Z,98795.98
2022-09-03T03:35:08.783Z,98795.25
2022-09-03T03:37:35.883Z,98792.98
2022-09-03T03:40:03.448Z,98796.40
2022-09-03T03:42:33.815Z,98795.56
2022-09-03T03:45:02.643Z,98802.13
2022-09-03T03:47:33.125Z,98802.02
2022-09-03T03:50:00.174Z,98798.85
2022-09-03T03:52:27.536Z,98796.47
2022-09-03T03:54:55.505Z,98793.92
2022-09-03T03:57:23.727Z,98796.51
2022-09-03T03:59:51.127Z,98799.01
2022-09-03T04:02:18.851Z,98798.04
2022-09-03T04:04:45.994Z,98797.04
2022-09-03T04:07:12.772Z,98794.25
2022-09-03T04:09:39.636Z,98794.83
2022-09-03T04:12:08.805Z,98792.04
2022-09-03T04:14:35.906Z,98792.69
2022-09-03T04:17:03.258Z,98786.52
2022-09-03T04:19:30.382Z,98784.30
2022-09-03T04:21:57.750Z,98778.64
2022-09-03T04:24:24.551Z,98777.63
2022-09-03T04:26:51.884Z,98782.02
2022-09-03T04:29:18.855Z,98781.60
2022-09-03T04:32:05.987Z,98787.45
2022-09-03T04:34:32.787Z,98789.21
2022-09-03T04:36:59.602Z,98788.80
2022-09-03T04:39:26.600Z,98790.97
2022-09-03T04:41:53.476Z,98794.34
2022-09-03T04:44:20.323Z,98796.58
2022-09-03T04:46:48.314Z,98801.89
2022-09-03T04:49:15.219Z,98803.70
2022-09-03T04:51:42.267Z,98805.86
2022-09-03T04:54:10.353Z,98801.16
2022-09-03T04:56:40.103Z,98805.71
2022-09-03T04:59:09.222Z,98803.83
2022-09-03T05:01:38.816Z,98809.38
2022-09-03T05:04:07.606Z,98813.98
2022-09-03T05:06:35.335Z,98821.77
2022-09-03T05:09:02.547Z,98817.61
2022-09-03T05:11:30.238Z,98818.42
2022-09-03T05:13:59.443Z,98812.45
2022-09-03T05:16:29.033Z,98817.77
2022-09-03T05:18:59.094Z,98817.70
2022-09-03T05:21:26.642Z,98824.31
2022-09-03T05:23:53.566Z,98822.07
2022-09-03T05:26:24.058Z,98821.21
2022-09-03T05:28:59.151Z,98820.64
2022-09-03T05:31:29.229Z,98818.95
2022-09-03T05:33:59.840Z,98817.94
2022-09-03T05:36:30.330Z,98817.85
2022-09-03T05:38:59.079Z,98820.89
2022-09-03T05:41:27.300Z,98824.58
2022-09-03T05:43:56.074Z,98817.55
2022-09-03T05:46:31.715Z,98827.17
2022-09-03T05:49:01.444Z,98817.73
2022-09-03T05:51:29.026Z,98816.79
2022-09-03T05:53:56.090Z,98811.57
2022-09-03T05:56:24.903Z,98807.44
2022-09-03T05:58:54.274Z,98808.77
2022-09-03T06:01:31.271Z,98806.69
2022-09-03T06:04:00.796Z,98804.16
2022-09-03T06:06:29.683Z,98804.92
2022-09-03T06:08:58.938Z,98805.73
2022-09-03T06:11:28.382Z,98799.74
2022-09-03T06:13:56.699Z,98802.88
2022-09-03T06:16:30.832Z,98804.52
2022-09-03T06:19:00.555Z,98800.84
2022-09-03T06:21:27.903Z,98801.89
2022-09-03T06:23:59.699Z,98801.92
2022-09-03T06:26:29.251Z,98798.89
2022-09-03T06:28:57.640Z,98795.08
2022-09-03T06:31:25.198Z,98793.91
2022-09-03T06:33:54.724Z,98796.30
2022-09-03T06:36:23.937Z,98799.52
2022-09-03T06:38:53.611Z,98797.98
2022-09-03T06:41:25.175Z,98804.29
2022-09-03T06:43:54.879Z,98809.90
2022-09-03T06:46:24.023Z,98810.30
2022-09-03T06:48:51.927Z,98811.16
2022-09-03T06:51:21.994Z,98811.77
2022-09-03T06:53:51.681Z,98807.09
2022-09-03T06:56:29.041Z,98808.13
2022-09-03T06:58:58.098Z,98807.01
2022-09-03T07:01:28.401Z,98806.71
2022-09-03T07:03:57.901Z,98811.98
2022-09-03T07:06:27.461Z,98813.67
2022-09-03T07:08:55.816Z,98811.35
2022-09-03T07:11:25.545Z,98815.61
2022-09-03T07:13:53.797Z,98821.58
2022-09-03T07:16:23.619Z,98830.68
2022-09-03T07:18:51.500Z,98828.58
2022-09-03T07:21:21.482Z,98827.60
2022-09-03T07:23:49.574Z,98828.20
2022-09-03T07:26:20.176Z,98824.13
2022-09-03T07:28:48.926Z,98826.97
2022-09-03T07:31:19.903Z,98820.16
2022-09-03T07:33:47.576Z,98817.46
2022-09-03T07:36:17.255Z,98817.41
2022-09-03T07:38:45.895Z,98818.65
2022-09-03T07:41:26.816Z,98821.16
2022-09-03T07:43:55.582Z,98819.36
2022-09-03T07:46:25.248Z,98814.55
2022-09-03T07:48:54.920Z,98815.77
2022-09-03T07:51:26.684Z,98816.34
2022-09-03T07:53:56.333Z,98821.55
2022-09-03T07:56:24.094Z,98823.14
2022-09-03T07:58:51.044Z,98823.16
2022-09-03T08:01:20.668Z,98827.48
2022-09-03T08:03:49.988Z,98825.99
2022-09-03T08:06:18.898Z,98827.98
2022-09-03T08:08:46.231Z,98826.83
2022-09-03T08:11:16.069Z,98829.39
2022-09-03T08:13:45.788Z,98831.84
2022-09-03T08:16:14.294Z,98832.98
2022-09-03T08:18:41.151Z,98830.40
2022-09-03T08:21:14.131Z,98834.35
2022-09-03T08:23:42.846Z,98836.83
2022-09-03T08:26:10.925Z,98837.58
2022-09-03T08:28:38.815Z,98835.48
2022-09-03T08:31:18.351Z,98837.84
2022-09-03T08:33:47.927Z,98834.75
2022-09-03T08:36:19.287Z,98842.11
2022-09-03T08:38:46.995Z,98841.30
2022-09-03T08:41:21.471Z,98842.14
2022-09-03T08:43:58.291Z,98843.58
2022-09-03T08:46:39.082Z,98845.60
2022-09-03T08:49:11.788Z,98846.18
2022-09-03T08:51:40.475Z,98839.92
2022-09-03T08:54:11.447Z,98838.12
2022-09-03T08:56:41.991Z,98833.67
2022-09-03T08:59:10.161Z,98834.89
2022-09-03T09:02:00.504Z,98837.52
2022-09-03T09:04:35.165Z,98835.69
2022-09-03T09:07:11.387Z,98832.25
2022-09-03T09:09:39.877Z,98829.09
2022-09-03T09:12:41.379Z,98828.33
2022-09-03T09:15:34.565Z,98827.42
2022-09-03T09:18:03.129Z,98824.92
2022-09-03T09:20:50.282Z,98816.04
2022-09-03T09:23:27.233Z,98813.27
2022-09-03T09:25:57.840Z,98817.61
2022-09-03T09:28:31.356Z,98814.77
2022-09-03T09:30:58.687Z,98814.09
2022-09-03T09:33:25.695Z,98812.05
2022-09-03T09:35:52.610Z,98817.58
2022-09-03T09:38:33.154Z,98815.73
2022-09-03T09:41:16.901Z,98813.77
2022-09-03T09:43:44.505Z,98816.63
2022-09-03T09:46:15.142Z,98812.84
2022-09-03T09:48:50.341Z,98812.56
2022-09-03T09:51:28.336Z,98815.80
2022-09-03T09:54:12.661Z,98823.86
2022-09-03T09:56:42.293Z,98828.00
2022-09-03T09:59:11.494Z,98833.79
2022-09-03T10:01:41.240Z,98840.62
2022-09-03T10:04:11.869Z,98841.45
2022-09-03T10:06:54.915Z,98839.42
2022-09-03T10:09:31.138Z,98839.93
2022-09-03T10:12:05.722Z,98833.35
2022-09-03T10:14:39.887Z,98833.70
2022-09-03T10:17:19.895Z,98827.98
2022-09-03T10:20:34.214Z,98832.69
2022-09-03T10:23:04.943Z,98833.18
2022-09-03T10:25:56.469Z,98832.86
2022-09-03T10:28:26.950Z,98831.23
2022-09-03T10:30:58.082Z,98828.63
2022-09-03T10:33:33.578Z,98828.30
2022-09-03T10:36:13.637Z,98832.44
2022-09-03T10:38:44.026Z,98836.52
2022-09-03T10:41:20.288Z,98836.57
2022-09-03T10:44:18.940Z,98834.80
2022-09-03T10:47:03.064Z,98832.91
2022-09-03T10:49:35.721Z,98833.77
2022-09-03T10:52:12.558Z,98826.89
2022-09-03T10:54:41.038Z,98824.77
2022-09-03T10:57:43.578Z,98823.63
2022-09-03T11:00:13.237Z,98820.48
2022-09-03T11:02:55.953Z,98825.85
2022-09-03T11:05:38.660Z,98828.30
2022-09-03T11:08:09.817Z,98826.28
2022-09-03T11:10:44.316Z,98829.37
2022-09-03T11:13:22.150Z,98835.06
2022-09-03T11:15:54.089Z,98830.45
2022-09-03T11:18:35.179Z,98829.69
2022-09-03T11:21:11.867Z,98833.43
2022-09-03T11:23:45.395Z,98823.53
2022-09-03T11:26:17.274Z,98823.95
2022-09-03T11:29:06.075Z,98823.41
2022-09-03T11:31:38.293Z,98822.42
2022-09-03T11:34:14.134Z,98826.53
2022-09-03T11:36:50.667Z,98816.94
2022-09-03T11:39:35.650Z,98816.52
2022-09-03T11:42:10.736Z,98813.91
2022-09-03T11:44:51.037Z,98809.41
2022-09-03T11:47:20.580Z,98804.03
2022-09-03T11:49:51.311Z,98807.33
2022-09-03T11:52:33.782Z,98802.91
2022-09-03T11:55:00.677Z,98804.59
2022-09-03T11:57:29.885Z,98800.92
2022-09-03T12:00:14.921Z,98798.83
2022-09-03T12:02:48.673Z,98794.58
2022-09-03T12:05:16.768Z,98791.86
2022-09-03T12:08:08.179Z,98793.19
2022-09-03T12:11:09.920Z,98796.88
2022-09-03T12:13:51.060Z,98794.60
2022-09-03T12:16:32.266Z,98793.05
2022-09-03T12:19:12.578Z,98787.57
2022-09-03T12:21:41.122Z,98780.10
2022-09-03T12:24:13.431Z,98772.95
2022-09-03T12:26:42.926Z,98769.79
2022-09-03T12:29:27.700Z,98761.71
2022-09-03T12:31:56.638Z,98767.55
2022-09-03T12:34:25.937Z,98765.73
2022-09-03T12:36:55.567Z,98758.04
2022-09-03T12:42:20.071Z,98758.17
2022-09-03T12:44:46.931Z,98757.64
2022-09-03T12:47:37.396Z,98761.54
2022-09-03T12:50:17.059Z,98752.58
2022-09-03T12:52:48.407Z,98746.96
2022-09-03T12:55:32.240Z,98735.93
2022-09-03T12:58:10.252Z,98734.13
2022-09-03T13:00:47.088Z,98732.42
2022-09-03T13:03:24.822Z,98736.30
2022-09-03T13:05:57.345Z,98728.81
2022-09-03T13:08:28.125Z,98738.50
2022-09-03T13:10:57.632Z,98736.23
2022-09-03T13:13:27.953Z,98734.83
2022-09-03T13:16:10.720Z,98737.79
2022-09-03T13:18:54.988Z,98738.23
2022-09-03T13:21:32.501Z,98730.48
2022-09-03T13:24:31.892Z,98732.02
2022-09-03T13:27:18.828Z,98731.60
2022-09-03T13:29:46.289Z,98735.55
2022-09-03T13:32:21.130Z,98735.04
2022-09-03T13:35:11.788Z,98733.29
2022-09-03T13:37:46.470Z,98725.39
2022-09-03T13:40:42.171Z,98718.46
2022-09-03T13:43:28.345Z,98715.75
2022-09-03T13:46:02.478Z,98720.19
2022-09-03T13:48:55.678Z,98720.42
2022-09-03T13:51:31.786Z,98717.59
2022-09-03T13:54:06.907Z,98711.55
2022-09-03T13:56:49.780Z,98713.11
2022-09-03T13:59:29.358Z,98715.93
2022-09-03T14:02:15.835Z,98714.82
2022-09-03T14:04:58.857Z,98713.36
2022-09-03T14:07:39.107Z,98717.38
2022-09-03T14:10:21.762Z,98718.75
2022-09-03T14:13:04.197Z,98713.98
2022-09-03T14:15:45.483Z,98711.62
2022-09-03T14:18:23.884Z,98712.88
2022-09-03T14:21:22.470Z,98712.22
2022-09-03T14:24:01.062Z,98714.71
2022-09-03T14:26:39.511Z,98711.24
2022-09-03T14:29:16.521Z,98714.10
2022-09-03T14:32:06.723Z,98719.03
2022-09-03T14:34:41.305Z,98718.83
2022-09-03T14:37:09.790Z,98721.29
2022-09-03T14:39:39.345Z,98717.45
2022-09-03T14:42:07.853Z,98713.36
2022-09-03T14:44:51.034Z,98716.61
2022-09-03T14:47:36.723Z,98713.27
2022-09-03T14:50:11.500Z,98711.39
2022-09-03T14:52:57.772Z,98713.00
2022-09-03T14:55:43.909Z,98712.58
2022-09-03T14:58:42.402Z,98713.15
2022-09-03T15:01:37.582Z,98706.29
2022-09-03T15:04:18.388Z,98706.77
2022-09-03T15:07:12.370Z,98705.21
2022-09-03T15:09:45.306Z,98701.69
2022-09-03T15:12:13.848Z,98700.73
2022-09-03T15:14:47.906Z,98700.59
2022-09-03T15:17:15.628Z,98702.73
2022-09-03T15:19:51.474Z,98702.09
2022-09-03T15:22:35.499Z,98702.05
2022-09-03T15:25:17.751Z,98698.80
2022-09-03T15:27:53.263Z,98696.15
2022-09-03T15:30:21.070Z,98697.10
2022-09-03T15:32:49.764Z,98691.43
2022-09-03T15:35:29.429Z,98693.95
2022-09-03T15:38:00.295Z,98693.59
2022-09-03T15:40:31.997Z,98695.41
2022-09-03T15:43:09.224Z,98694.59
2022-09-03T15:45:39.835Z,98699.15
2022-09-03T15:48:26.990Z,98701.67
2022-09-03T15:51:10.108Z,98702.19
2022-09-03T15:53:46.269Z,98699.00
2022-09-03T15:56:23.697Z,98702.84
2022-09-03T15:58:58.976Z,98711.32
2022-09-03T16:01:41.062Z,98708.77
2022-09-03T16:04:36.554Z,98717.89
2022-09-03T16:07:20.382Z,98719.86
2022-09-03T16:10:25.954Z,98717.23
2022-09-03T16:13:25.522Z,98721.85
2022-09-03T16:16:11.570Z,98722.30
2022-09-03T16:18:47.884Z,98720.70
2022-09-03T16:21:32.011Z,98724.31
2022-09-03T16:24:04.058Z,98723.30
2022-09-03T16:26:50.049Z,98724.93
2022-09-03T16:29:19.474Z,98728.08
2022-09-03T16:32:02.154Z,98726.41
2022-09-03T16:34:50.416Z,98724.44
2022-09-03T16:37:26.931Z,98724.03
2022-09-03T16:40:17.548Z,98723.41
2022-09-03T16:42:44.913Z,98719.84
2022-09-03T16:45:27.599Z,98725.20
2022-09-03T16:48:25.699Z,98725.02
2022-09-03T16:51:14.107Z,98721.30
2022-09-03T16:54:09.228Z,98725.14
2022-09-03T16:56:52.065Z,98727.09
2022-09-03T16:59:35.917Z,98730.70
2022-09-03T17:02:39.860Z,98729.27
2022-09-03T17:05:39.927Z,98727.42
2022-09-03T17:08:30.889Z,98736.52
2022-09-03T17:11:29.067Z,98735.08
2022-09-03T17:14:02.453Z,98735.52
2022-09-03T17:16:34.920Z,98735.96
2022-09-03T17:19:10.891Z,98736.35
2022-09-03T17:21:46.345Z,98735.27
2022-09-03T17:24:33.539Z,98735.20
2022-09-03T17:27:26.632Z,98732.86
2022-09-03T17:30:10.845Z,98739.30
2022-09-03T17:32:57.641Z,98744.98
2022-09-03T17:35:38.097Z,98749.91
2022-09-03T17:38:06.907Z,98750.98
2022-09-03T17:40:44.525Z,98752.12
2022-09-03T17:43:24.931Z,98751.89
2022-09-03T17:46:05.505Z,98752.30
2022-09-03T17:48:34.221Z,98757.64
2022-09-03T17:51:10.481Z,98764.50
2022-09-03T17:53:55.302Z,98764.95
2022-09-03T17:56:30.029Z,98765.73
2022-09-03T17:59:15.992Z,98765.41
2022-09-03T18:01:53.014Z,98764.52
2022-09-03T18:04:39.375Z,98771.86
2022-09-03T18:07:10.384Z,98773.04
2022-09-03T18:10:02.445Z,98772.13
2022-09-03T18:13:03.694Z,98775.92
2022-09-03T18:15:43.567Z,98774.88
2022-09-03T18:18:19.262Z,98777.07
2022-09-03T18:21:26.637Z,98776.27
2022-09-03T18:24:21.634Z,98776.67
2022-09-03T18:27:14.533Z,98776.45
2022-09-03T18:30:07.733Z,98775.30
2022-09-03T18:32:50.357Z,98776.48
2022-09-03T18:35:33.380Z,98778.88
2022-09-03T18:38:19.570Z,98783.75
2022-09-03T18:41:21.959Z,98785.67
2022-09-03T18:44:08.276Z,98781.39
2022-09-03T18:48:02.946Z,98782.86
2022-09-03T18:50:44.101Z,98784.46
2022-09-03T18:53:40.248Z,98788.20
2022-09-03T18:56:35.835Z,98788.13
2022-09-03T18:59:53.944Z,98794.13
2022-09-03T19:03:01.966Z,98785.55
2022-09-03T19:05:56.448Z,98784.57
2022-09-03T19:08:48.006Z,98788.65
2022-09-03T19:11:41.075Z,98787.16
2022-09-03T19:14:41.794Z,98792.83
2022-09-03T19:17:41.530Z,98792.05
2022-09-03T19:20:35.019Z,98786.17
2022-09-03T19:23:18.977Z,98789.35
2022-09-03T19:26:01.713Z,98789.40
2022-09-03T19:28:47.130Z,98791.42
2022-09-03T19:31:43.741Z,98796.65
2022-09-03T19:35:01.911Z,98798.69
2022-09-03T19:38:01.607Z,98801.30
2022-09-03T19:41:01.343Z,98803.98
2022-09-03T19:44:01.046Z,98803.89
2022-09-03T19:46:49.958Z,98803.70
2022-09-03T19:49:48.984Z,98804.29
2022-09-03T19:53:03.256Z,98807.06
2022-09-03T19:55:51.150Z,98804.82
2022-09-03T19:58:43.491Z,98803.98
2022-09-03T20:01:28.183Z,98810.16
2022-09-03T20:04:12.936Z,98813.23
2022-09-03T20:06:55.774Z,98812.52
2022-09-03T20:09:45.788Z,98816.63
2022-09-03T20:12:16.498Z,98822.08
2022-09-03T20:14:43.339Z,98825.55
2022-09-03T20:17:13.075Z,98827.07
2022-09-03T20:19:41.654Z,98826.55
2022-09-03T20:22:29.262Z,98824.85
2022-09-03T20:25:07.452Z,98829.08
2022-09-03T20:27:42.268Z,98833.27
2022-09-03T20:30:16.231Z,98833.19
2022-09-03T20:33:14.327Z,98839.60
2022-09-03T20:36:13.525Z,98836.77
2022-09-03T20:38:58.927Z,98831.29
2022-09-03T20:41:48.839Z,98832.38
2022-09-03T20:44:34.999Z,98831.27
2022-09-03T20:47:33.526Z,98827.85
2022-09-03T20:50:10.424Z,98824.97
2022-09-03T20:52:56.863Z,98823.13
2022-09-03T20:55:28.219Z,98826.71
2022-09-03T20:58:11.856Z,98825.91
2022-09-03T21:00:53.751Z,98827.13
2022-09-03T21:03:25.572Z,98833.00
2022-09-03T21:06:14.668Z,98836.04
2022-09-03T21:08:48.803Z,98835.67
2022-09-03T21:11:29.646Z,98835.04
2022-09-03T21:14:25.030Z,98834.47
2022-09-03T21:17:09.153Z,98833.84
2022-09-03T21:19:46.343Z,98837.70
2022-09-03T21:22:44.751Z,98843.37
2022-09-03T21:25:16.957Z,98845.66
2022-09-03T21:27:51.180Z,98842.11
2022-09-03T21:30:20.525Z,98844.05
2022-09-03T21:33:06.553Z,98836.88
2022-09-03T21:35:38.819Z,98833.53
2022-09-03T21:38:08.726Z,98836.92
2022-09-03T21:40:41.905Z,98834.99
2022-09-03T21:43:21.990Z,98837.94
2022-09-03T21:46:02.038Z,98837.84
2022-09-03T21:48:35.810Z,98835.06
2022-09-03T21:51:14.410Z,98835.60
2022-09-03T21:53:48.361Z,98831.91
2022-09-03T21:56:25.574Z,98833.41
2022-09-03T21:59:11.873Z,98834.98
2022-09-03T22:02:05.363Z,98834.15
2022-09-03T22:04:32.999Z,98836.09
2022-09-03T22:07:31.452Z,98829.85
2022-09-03T22:10:26.262Z,98832.63
2022-09-03T22:13:14.753Z,98829.27
2022-09-03T22:15:51.789Z,98832.91
2022-09-03T22:18:28.501Z,98838.09
2022-09-03T22:21:01.672Z,98835.29
2022-09-03T22:23:44.435Z,98833.13
2022-09-03T22:26:22.717Z,98834.36
2022-09-03T22:29:09.378Z,98837.10
2022-09-03T22:31:36.782Z,98831.56
2022-09-03T22:34:15.081Z,98839.89
2022-09-03T22:36:50.588Z,98843.11
2022-09-03T22:39:39.167Z,98842.59
2022-09-03T22:42:13.800Z,98838.33
2022-09-03T22:44:56.629Z,98838.95
2022-09-03T22:47:47.684Z,98840.75
2022-09-03T22:50:35.456Z,98839.77
2022-09-03T22:53:25.494Z,98838.98
2022-09-03T22:55:59.958Z,98835.33
2022-09-03T22:58:31.214Z,98834.52
2022-09-03T23:01:07.878Z,98829.86
2022-09-03T23:03:42.395Z,98831.77
2022-09-03T23:06:21.579Z,98830.65
2022-09-03T23:08:57.188Z,98826.56
2022-09-03T23:11:34.800Z,98827.34
2022-09-03T23:14:08.291Z,98828.38
2022-09-03T23:17:00.629Z,98831.69
2022-09-03T23:19:41.099Z,98825.65
2022-09-03T23:22:13.364Z,98828.13
2022-09-03T23:24:45.086Z,98827.19
2022-09-03T23:27:21.078Z,98826.67
2022-09-03T23:29:54.377Z,98828.36
2022-09-03T23:32:22.096Z,98825.69
2022-09-03T23:34:49.220Z,98829.23
2022-09-03T23:37:35.439Z,98834.70
2022-09-03T23:40:10.469Z,98831.35
2022-09-03T23:42:54.015Z,98833.45
2022-09-03T23:45:30.146Z,98834.32
2022-09-03T23:48:30.062Z,98836.80
2022-09-03T23:51:06.587Z,98832.59
2022-09-03T23:53:49.426Z,98833.37
2022-09-03T23:56:41.042Z,98832.16
2022-09-03T23:59:32.613Z,98834.09
